Beech Bottom, West Virginia
Current Conditions -  °F | °C
As of 3:53 PM on Saturday 25 Oct 2014 (Local Time) from KHLG Reporting Station
Overcast Overcast  
Wind Chill: 65°   Ceiling: 3400
Heat Index: 65°   Visibility: 10mi
Dew Point: 50°   Wind: 17mph
Humidity: 58%   Direction: 220°SW
Pressure: 29.81"   Gusts: 24mph
Location:  40.23°N, 80.65°W
Report Text: KHLG 251953Z 22015G21KT 10SM OVC034 18/10 A2981 RMK AO2 SLP095 T01830100
Loading
Personal Weather Stations






























Interactive Weather Map
Tropical Storm Tracking
New forecast layout! Learn more

10-Day Weather Forecast

Advertisements
Track Severe Weather on mobile